sensor_id;sensor_type;location;lat;lon;timestamp;pressure;altitude;pressure_sealevel;temperature;humidity
58622;BME280;44389;51.578;5.456;2022-10-31T00:01:20;101948.66;;;11.80;100.00
58622;BME280;44389;51.578;5.456;2022-10-31T00:03:46;101951.94;;;11.76;100.00
58622;BME280;44389;51.578;5.456;2022-10-31T00:06:13;101953.44;;;11.71;100.00
58622;BME280;44389;51.578;5.456;2022-10-31T00:08:38;101955.19;;;11.72;100.00
58622;BME280;44389;51.578;5.456;2022-10-31T00:11:03;101956.03;;;11.71;100.00
58622;BME280;44389;51.578;5.456;2022-10-31T00:13:29;101955.06;;;11.69;100.00
58622;BME280;44389;51.578;5.456;2022-10-31T00:15:54;101956.63;;;11.65;100.00
58622;BME280;44389;51.578;5.456;2022-10-31T00:18:19;101955.75;;;11.65;100.00
58622;BME280;44389;51.578;5.456;2022-10-31T00:20:45;101965.13;;;11.63;100.00
58622;BME280;44389;51.578;5.456;2022-10-31T00:23:11;101970.22;;;11.61;100.00
58622;BME280;44389;51.578;5.456;2022-10-31T00:25:38;101964.84;;;11.57;100.00
58622;BME280;44389;51.578;5.456;2022-10-31T00:28:05;101963.97;;;11.56;100.00
58622;BME280;44389;51.578;5.456;2022-10-31T00:30:32;101963.16;;;11.57;100.00
58622;BME280;44389;51.578;5.456;2022-10-31T00:32:57;101967.53;;;11.58;100.00
58622;BME280;44389;51.578;5.456;2022-10-31T00:35:23;101961.34;;;11.55;100.00
58622;BME280;44389;51.578;5.456;2022-10-31T00:37:48;101957.94;;;11.56;100.00
58622;BME280;44389;51.578;5.456;2022-10-31T00:40:13;101962.13;;;11.53;100.00
58622;BME280;44389;51.578;5.456;2022-10-31T00:42:39;101962.13;;;11.53;100.00
58622;BME280;44389;51.578;5.456;2022-10-31T00:45:10;101952.69;;;11.54;100.00
58622;BME280;44389;51.578;5.456;2022-10-31T00:47:35;101948.22;;;11.50;100.00
58622;BME280;44389;51.578;5.456;2022-10-31T00:50:00;101940.53;;;11.51;100.00
58622;BME280;44389;51.578;5.456;2022-10-31T00:52:26;101951.47;;;11.46;100.00
58622;BME280;44389;51.578;5.456;2022-10-31T00:54:51;101955.50;;;11.39;100.00
58622;BME280;44389;51.578;5.456;2022-10-31T00:57:16;101947.94;;;11.44;100.00
58622;BME280;44389;51.578;5.456;2022-10-31T00:59:41;101952.97;;;11.41;100.00
58622;BME280;44389;51.578;5.456;2022-10-31T01:02:07;101951.16;;;11.38;100.00
58622;BME280;44389;51.578;5.456;2022-10-31T01:04:32;101957.00;;;11.34;100.00
58622;BME280;44389;51.578;5.456;2022-10-31T01:06:58;101951.81;;;11.34;100.00
58622;BME280;44389;51.578;5.456;2022-10-31T01:09:23;101956.31;;;11.38;100.00
58622;BME280;44389;51.578;5.456;2022-10-31T01:11:48;101951.94;;;11.37;100.00
58622;BME280;44389;51.578;5.456;2022-10-31T01:14:14;101933.88;;;11.37;100.00
58622;BME280;44389;51.578;5.456;2022-10-31T01:16:39;101930.09;;;11.29;100.00
58622;BME280;44389;51.578;5.456;2022-10-31T01:19:04;101939.34;;;11.24;100.00
58622;BME280;44389;51.578;5.456;2022-10-31T01:21:29;101935.31;;;10.91;100.00
58622;BME280;44389;51.578;5.456;2022-10-31T01:23:55;101933.94;;;10.80;100.00
58622;BME280;44389;51.578;5.456;2022-10-31T01:26:26;101939.19;;;10.63;100.00
58622;BME280;44389;51.578;5.456;2022-10-31T01:28:53;101941.63;;;10.60;100.00
58622;BME280;44389;51.578;5.456;2022-10-31T01:31:20;101942.28;;;10.56;100.00
58622;BME280;44389;51.578;5.456;2022-10-31T01:33:46;101935.19;;;10.70;100.00
58622;BME280;44389;51.578;5.456;2022-10-31T01:36:33;101941.63;;;10.60;100.00
58622;BME280;44389;51.578;5.456;2022-10-31T01:39:06;101939.63;;;10.54;100.00
58622;BME280;44389;51.578;5.456;2022-10-31T01:41:35;101947.44;;;10.56;100.00
58622;BME280;44389;51.578;5.456;2022-10-31T01:44:43;101949.94;;;10.54;100.00
58622;BME280;44389;51.578;5.456;2022-10-31T01:49:38;101947.28;;;10.53;100.00
58622;BME280;44389;51.578;5.456;2022-10-31T01:52:09;101954.81;;;10.48;100.00
58622;BME280;44389;51.578;5.456;2022-10-31T01:54:42;101945.16;;;10.44;100.00
58622;BME280;44389;51.578;5.456;2022-10-31T01:57:12;101948.19;;;10.35;100.00
58622;BME280;44389;51.578;5.456;2022-10-31T01:59:42;101949.06;;;10.36;100.00
58622;BME280;44389;51.578;5.456;2022-10-31T02:02:10;101936.66;;;10.29;100.00
58622;BME280;44389;51.578;5.456;2022-10-31T02:04:36;101940.94;;;10.28;100.00
58622;BME280;44389;51.578;5.456;2022-10-31T02:07:14;101940.88;;;10.27;100.00
58622;BME280;44389;51.578;5.456;2022-10-31T02:09:43;101932.09;;;10.23;100.00
58622;BME280;44389;51.578;5.456;2022-10-31T02:12:10;101935.16;;;10.16;100.00
58622;BME280;44389;51.578;5.456;2022-10-31T02:14:36;101931.41;;;10.09;100.00
58622;BME280;44389;51.578;5.456;2022-10-31T02:17:03;101928.34;;;9.82;100.00
58622;BME280;44389;51.578;5.456;2022-10-31T02:19:53;101929.91;;;9.78;100.00
58622;BME280;44389;51.578;5.456;2022-10-31T02:22:48;101928.31;;;9.64;100.00
58622;BME280;44389;51.578;5.456;2022-10-31T02:25:37;101929.19;;;9.64;100.00
58622;BME280;44389;51.578;5.456;2022-10-31T02:31:15;101932.09;;;9.70;100.00
58622;BME280;44389;51.578;5.456;2022-10-31T02:36:40;101929.78;;;9.59;100.00
58622;BME280;44389;51.578;5.456;2022-10-31T02:39:18;101922.53;;;9.51;100.00
58622;BME280;44389;51.578;5.456;2022-10-31T02:42:16;101931.94;;;9.51;100.00
58622;BME280;44389;51.578;5.456;2022-10-31T02:45:25;101926.88;;;9.52;100.00
58622;BME280;44389;51.578;5.456;2022-10-31T02:47:55;101926.75;;;9.49;100.00
58622;BME280;44389;51.578;5.456;2022-10-31T02:50:28;101922.97;;;9.43;100.00
58622;BME280;44389;51.578;5.456;2022-10-31T02:52:54;101922.97;;;9.43;100.00
58622;BME280;44389;51.578;5.456;2022-10-31T02:57:48;101922.16;;;9.27;100.00
58622;BME280;44389;51.578;5.456;2022-10-31T03:00:14;101931.75;;;9.30;100.00
58622;BME280;44389;51.578;5.456;2022-10-31T03:03:04;101931.09;;;9.34;100.00
58622;BME280;44389;51.578;5.456;2022-10-31T03:05:51;101930.75;;;9.28;100.00
58622;BME280;44389;51.578;5.456;2022-10-31T03:10:58;101936.88;;;9.30;100.00
58622;BME280;44389;51.578;5.456;2022-10-31T03:13:33;101930.91;;;9.31;100.00
58622;BME280;44389;51.578;5.456;2022-10-31T03:21:32;101935.09;;;9.29;100.00
58622;BME280;44389;51.578;5.456;2022-10-31T03:24:00;101926.75;;;9.33;100.00
58622;BME280;44389;51.578;5.456;2022-10-31T03:26:26;101924.97;;;9.32;100.00
58622;BME280;44389;51.578;5.456;2022-10-31T03:28:55;101931.09;;;9.34;100.00
58622;BME280;44389;51.578;5.456;2022-10-31T03:31:25;101934.00;;;9.40;100.00
58622;BME280;44389;51.578;5.456;2022-10-31T03:33:54;101928.97;;;9.43;100.00
58622;BME280;44389;51.578;5.456;2022-10-31T03:36:22;101932.03;;;9.36;100.00
58622;BME280;44389;51.578;5.456;2022-10-31T03:38:48;101926.34;;;9.42;100.00
58622;BME280;44389;51.578;5.456;2022-10-31T03:41:18;101932.34;;;9.42;100.00
58622;BME280;44389;51.578;5.456;2022-10-31T03:43:52;101928.66;;;9.37;100.00
58622;BME280;44389;51.578;5.456;2022-10-31T03:46:18;101923.19;;;9.31;100.00
58622;BME280;44389;51.578;5.456;2022-10-31T03:48:43;101923.50;;;9.20;100.00
58622;BME280;44389;51.578;5.456;2022-10-31T03:53:57;101927.97;;;9.06;100.00
58622;BME280;44389;51.578;5.456;2022-10-31T03:56:33;101930.41;;;9.05;100.00
58622;BME280;44389;51.578;5.456;2022-10-31T03:59:07;101922.53;;;8.85;100.00
58622;BME280;44389;51.578;5.456;2022-10-31T04:01:37;101921.72;;;8.86;100.00
58622;BME280;44389;51.578;5.456;2022-10-31T04:04:04;101924.94;;;8.82;100.00
58622;BME280;44389;51.578;5.456;2022-10-31T04:06:31;101917.38;;;8.85;100.00
58622;BME280;44389;51.578;5.456;2022-10-31T04:09:01;101929.28;;;8.83;100.00
58622;BME280;44389;51.578;5.456;2022-10-31T04:11:36;101926.38;;;8.77;100.00
58622;BME280;44389;51.578;5.456;2022-10-31T04:14:04;101925.25;;;8.72;100.00
58622;BME280;44389;51.578;5.456;2022-10-31T04:16:31;101925.88;;;8.68;100.00
58622;BME280;44389;51.578;5.456;2022-10-31T04:18:56;101919.25;;;8.71;100.00
58622;BME280;44389;51.578;5.456;2022-10-31T04:21:28;101929.34;;;8.68;100.00
58622;BME280;44389;51.578;5.456;2022-10-31T04:23:55;101930.38;;;8.72;100.00
58622;BME280;44389;51.578;5.456;2022-10-31T04:26:20;101925.25;;;8.72;100.00
58622;BME280;44389;51.578;5.456;2022-10-31T04:28:45;101927.03;;;8.73;100.00
58622;BME280;44389;51.578;5.456;2022-10-31T04:31:11;101927.03;;;8.73;100.00
58622;BME280;44389;51.578;5.456;2022-10-31T04:33:37;101930.53;;;8.75;100.00
58622;BME280;44389;51.578;5.456;2022-10-31T04:36:03;101921.88;;;8.73;100.00
58622;BME280;44389;51.578;5.456;2022-10-31T04:38:28;101933.13;;;8.75;100.00
58622;BME280;44389;51.578;5.456;2022-10-31T04:40:53;101927.97;;;8.75;100.00
58622;BME280;44389;51.578;5.456;2022-10-31T04:43:18;101932.50;;;8.79;100.00
58622;BME280;44389;51.578;5.456;2022-10-31T04:45:44;101933.94;;;8.74;100.00
58622;BME280;44389;51.578;5.456;2022-10-31T04:48:09;101930.38;;;8.72;100.00
58622;BME280;44389;51.578;5.456;2022-10-31T04:50:34;101926.38;;;8.77;100.00
58622;BME280;44389;51.578;5.456;2022-10-31T04:53:00;101925.41;;;8.75;100.00
58622;BME280;44389;51.578;5.456;2022-10-31T04:55:25;101917.19;;;8.66;100.00
58622;BME280;44389;51.578;5.456;2022-10-31T04:57:50;101927.97;;;8.75;100.00
58622;BME280;44389;51.578;5.456;2022-10-31T05:00:17;101920.09;;;8.72;100.00
58622;BME280;44389;51.578;5.456;2022-10-31T05:02:54;101930.22;;;8.69;100.00
58622;BME280;44389;51.578;5.456;2022-10-31T05:05:25;101935.53;;;8.72;100.00
58622;BME280;44389;51.578;5.456;2022-10-31T05:07:51;101917.63;;;8.73;100.00
58622;BME280;44389;51.578;5.456;2022-10-31T05:10:19;101914.81;;;8.69;100.00
58622;BME280;44389;51.578;5.456;2022-10-31T05:12:49;101912.84;;;8.65;100.00
58622;BME280;44389;51.578;5.456;2022-10-31T05:15:16;101907.72;;;8.65;100.00
58622;BME280;44389;51.578;5.456;2022-10-31T05:17:42;101905.16;;;8.65;100.00
58622;BME280;44389;51.578;5.456;2022-10-31T05:20:08;101904.56;;;8.54;100.00
58622;BME280;44389;51.578;5.456;2022-10-31T05:22:33;101901.91;;;8.52;100.00
58622;BME280;44389;51.578;5.456;2022-10-31T05:24:58;101907.78;;;8.50;100.00
58622;BME280;44389;51.578;5.456;2022-10-31T05:27:24;101910.28;;;8.48;100.00
58622;BME280;44389;51.578;5.456;2022-10-31T05:29:49;101908.91;;;8.55;100.00
58622;BME280;44389;51.578;5.456;2022-10-31T05:32:14;101907.13;;;8.54;100.00
58622;BME280;44389;51.578;5.456;2022-10-31T05:34:40;101905.56;;;8.56;100.00
58622;BME280;44389;51.578;5.456;2022-10-31T05:37:05;101906.41;;;8.56;100.00
58622;BME280;44389;51.578;5.456;2022-10-31T05:39:30;101907.22;;;8.55;100.00
58622;BME280;44389;51.578;5.456;2022-10-31T05:41:55;101902.06;;;8.55;100.00
58622;BME280;44389;51.578;5.456;2022-10-31T05:44:21;101897.91;;;8.57;100.00
58622;BME280;44389;51.578;5.456;2022-10-31T05:46:46;101894.72;;;8.62;100.00
58622;BME280;44389;51.578;5.456;2022-10-31T05:49:12;101892.06;;;8.60;100.00
58622;BME280;44389;51.578;5.456;2022-10-31T05:51:37;101894.06;;;8.66;100.00
58622;BME280;44389;51.578;5.456;2022-10-31T05:54:02;101891.25;;;8.61;100.00
58622;BME280;44389;51.578;5.456;2022-10-31T05:56:28;101899.22;;;8.66;100.00
58622;BME280;44389;51.578;5.456;2022-10-31T05:58:53;101889.50;;;8.60;100.00
58622;BME280;44389;51.578;5.456;2022-10-31T06:01:19;101886.84;;;8.59;100.00
58622;BME280;44389;51.578;5.456;2022-10-31T06:03:44;101887.63;;;8.57;100.00
58622;BME280;44389;51.578;5.456;2022-10-31T06:06:09;101893.31;;;8.52;100.00
58622;BME280;44389;51.578;5.456;2022-10-31T06:08:35;101888.59;;;8.60;100.00
58622;BME280;44389;51.578;5.456;2022-10-31T06:11:00;101888.06;;;8.65;100.00
58622;BME280;44389;51.578;5.456;2022-10-31T06:13:26;101881.06;;;8.63;100.00
58622;BME280;44389;51.578;5.456;2022-10-31T06:15:51;101882.91;;;8.65;100.00
58622;BME280;44389;51.578;5.456;2022-10-31T06:18:16;101882.00;;;8.65;100.00
58622;BME280;44389;51.578;5.456;2022-10-31T06:20:41;101876.38;;;8.55;100.00
58622;BME280;44389;51.578;5.456;2022-10-31T06:23:07;101875.25;;;8.50;100.00
58622;BME280;44389;51.578;5.456;2022-10-31T06:25:32;101878.59;;;8.49;100.00
58622;BME280;44389;51.578;5.456;2022-10-31T06:27:58;101881.53;;;8.55;100.00
58622;BME280;44389;51.578;5.456;2022-10-31T06:30:24;101885.78;;;8.55;100.00
58622;BME280;44389;51.578;5.456;2022-10-31T06:32:49;101884.00;;;8.54;100.00
58622;BME280;44389;51.578;5.456;2022-10-31T06:35:15;101887.88;;;8.62;100.00
58622;BME280;44389;51.578;5.456;2022-10-31T06:37:40;101884.13;;;8.72;100.00
58622;BME280;44389;51.578;5.456;2022-10-31T06:40:05;101897.78;;;8.71;100.00
58622;BME280;44389;51.578;5.456;2022-10-31T06:42:31;101892.81;;;8.74;100.00
58622;BME280;44389;51.578;5.456;2022-10-31T06:44:56;101887.97;;;8.80;100.00
58622;BME280;44389;51.578;5.456;2022-10-31T06:47:21;101895.63;;;8.79;100.00
58622;BME280;44389;51.578;5.456;2022-10-31T06:49:48;101885.34;;;8.79;100.00
58622;BME280;44389;51.578;5.456;2022-10-31T06:52:13;101888.97;;;8.82;100.00
58622;BME280;44389;51.578;5.456;2022-10-31T06:54:38;101890.88;;;8.86;100.00
58622;BME280;44389;51.578;5.456;2022-10-31T06:57:04;101884.94;;;8.87;100.00
58622;BME280;44389;51.578;5.456;2022-10-31T06:59:29;101895.38;;;8.90;100.00
58622;BME280;44389;51.578;5.456;2022-10-31T07:01:54;101893.78;;;8.93;100.00
58622;BME280;44389;51.578;5.456;2022-10-31T07:04:19;101894.00;;;8.97;100.00
58622;BME280;44389;51.578;5.456;2022-10-31T07:06:45;101881.34;;;9.00;100.00
58622;BME280;44389;51.578;5.456;2022-10-31T07:09:10;101885.91;;;9.06;100.00
58622;BME280;44389;51.578;5.456;2022-10-31T07:11:35;101883.34;;;9.06;100.00
58622;BME280;44389;51.578;5.456;2022-10-31T07:14:01;101887.28;;;9.16;100.00
58622;BME280;44389;51.578;5.456;2022-10-31T07:16:26;101881.75;;;9.25;100.00
58622;BME280;44389;51.578;5.456;2022-10-31T07:18:52;101884.72;;;9.32;100.00
58622;BME280;44389;51.578;5.456;2022-10-31T07:21:17;101884.38;;;9.43;100.00
58622;BME280;44389;51.578;5.456;2022-10-31T07:23:42;101891.66;;;9.51;100.00
58622;BME280;44389;51.578;5.456;2022-10-31T07:26:09;101893.66;;;9.57;100.00
58622;BME280;44389;51.578;5.456;2022-10-31T07:28:34;101893.75;;;9.59;100.00
58622;BME280;44389;51.578;5.456;2022-10-31T07:31:00;101893.88;;;9.62;100.00
58622;BME280;44389;51.578;5.456;2022-10-31T07:33:25;101889.94;;;9.68;100.00
58622;BME280;44389;51.578;5.456;2022-10-31T07:35:51;101893.53;;;9.72;100.00
58622;BME280;44389;51.578;5.456;2022-10-31T07:38:17;101894.81;;;9.80;100.00
58622;BME280;44389;51.578;5.456;2022-10-31T07:40:42;101896.00;;;9.87;100.00
58622;BME280;44389;51.578;5.456;2022-10-31T07:43:08;101899.69;;;9.92;100.00
58622;BME280;44389;51.578;5.456;2022-10-31T07:45:35;101892.19;;;9.97;100.00
58622;BME280;44389;51.578;5.456;2022-10-31T07:48:00;101898.34;;;10.00;100.00
58622;BME280;44389;51.578;5.456;2022-10-31T07:50:28;101899.63;;;10.09;100.00
58622;BME280;44389;51.578;5.456;2022-10-31T07:52:59;101901.78;;;10.17;100.00
58622;BME280;44389;51.578;5.456;2022-10-31T07:55:24;101898.66;;;10.25;100.00
58622;BME280;44389;51.578;5.456;2022-10-31T07:58:01;101908.03;;;10.23;100.00
58622;BME280;44389;51.578;5.456;2022-10-31T08:00:26;101898.09;;;10.30;100.00
58622;BME280;44389;51.578;5.456;2022-10-31T08:05:28;101903.91;;;10.44;100.00
58622;BME280;44389;51.578;5.456;2022-10-31T08:07:54;101903.09;;;10.63;100.00
58622;BME280;44389;51.578;5.456;2022-10-31T08:10:20;101894.22;;;10.76;100.00
58622;BME280;44389;51.578;5.456;2022-10-31T08:12:45;101903.31;;;10.87;100.00
58622;BME280;44389;51.578;5.456;2022-10-31T08:15:11;101907.41;;;11.02;100.00
58622;BME280;44389;51.578;5.456;2022-10-31T08:17:37;101901.31;;;11.19;100.00
58622;BME280;44389;51.578;5.456;2022-10-31T08:20:03;101900.06;;;11.31;100.00
58622;BME280;44389;51.578;5.456;2022-10-31T08:22:29;101895.31;;;11.40;100.00
58622;BME280;44389;51.578;5.456;2022-10-31T08:24:54;101897.72;;;11.57;100.00
58622;BME280;44389;51.578;5.456;2022-10-31T08:27:19;101898.88;;;11.63;100.00
58622;BME280;44389;51.578;5.456;2022-10-31T08:29:45;101895.13;;;11.76;100.00
58622;BME280;44389;51.578;5.456;2022-10-31T08:32:10;101888.22;;;11.77;100.00
58622;BME280;44389;51.578;5.456;2022-10-31T08:34:35;101889.19;;;11.79;100.00
58622;BME280;44389;51.578;5.456;2022-10-31T08:37:00;101899.00;;;11.88;100.00
58622;BME280;44389;51.578;5.456;2022-10-31T08:39:26;101911.66;;;12.01;100.00
58622;BME280;44389;51.578;5.456;2022-10-31T08:41:51;101889.63;;;12.11;100.00
58622;BME280;44389;51.578;5.456;2022-10-31T08:44:16;101890.53;;;12.11;100.00
58622;BME280;44389;51.578;5.456;2022-10-31T08:46:42;101884.53;;;12.12;100.00
58622;BME280;44389;51.578;5.456;2022-10-31T08:49:07;101866.56;;;12.15;100.00
58622;BME280;44389;51.578;5.456;2022-10-31T08:51:32;101849.34;;;12.16;100.00
58622;BME280;44389;51.578;5.456;2022-10-31T08:53:57;101840.16;;;12.23;100.00
58622;BME280;44389;51.578;5.456;2022-10-31T08:56:23;101838.50;;;12.25;100.00
58622;BME280;44389;51.578;5.456;2022-10-31T08:58:49;101843.09;;;12.32;100.00
58622;BME280;44389;51.578;5.456;2022-10-31T09:01:16;101843.91;;;12.31;100.00
58622;BME280;44389;51.578;5.456;2022-10-31T09:03:41;101861.63;;;12.44;100.00
58622;BME280;44389;51.578;5.456;2022-10-31T09:06:06;101862.81;;;12.52;100.00
58622;BME280;44389;51.578;5.456;2022-10-31T09:08:34;101855.69;;;12.47;100.00
58622;BME280;44389;51.578;5.456;2022-10-31T09:11:00;101860.41;;;12.57;100.00
58622;BME280;44389;51.578;5.456;2022-10-31T09:13:25;101863.22;;;12.63;100.00
58622;BME280;44389;51.578;5.456;2022-10-31T09:15:51;101853.09;;;12.70;100.00
58622;BME280;44389;51.578;5.456;2022-10-31T09:18:19;101863.13;;;12.84;100.00
58622;BME280;44389;51.578;5.456;2022-10-31T09:20:45;101857.13;;;12.85;100.00
58622;BME280;44389;51.578;5.456;2022-10-31T09:23:22;101868.84;;;13.00;100.00
58622;BME280;44389;51.578;5.456;2022-10-31T09:25:49;101874.94;;;13.00;100.00
58622;BME280;44389;51.578;5.456;2022-10-31T09:28:17;101856.63;;;12.96;100.00
58622;BME280;44389;51.578;5.456;2022-10-31T09:30:45;101835.28;;;13.01;100.00
58622;BME280;44389;51.578;5.456;2022-10-31T09:33:12;101835.66;;;13.12;100.00
58622;BME280;44389;51.578;5.456;2022-10-31T09:35:38;101820.16;;;13.14;100.00
58622;BME280;44389;51.578;5.456;2022-10-31T09:38:14;101830.06;;;13.26;100.00
58622;BME280;44389;51.578;5.456;2022-10-31T09:41:16;101815.25;;;13.46;100.00
58622;BME280;44389;51.578;5.456;2022-10-31T09:54:52;101813.34;;;13.40;100.00
58622;BME280;44389;51.578;5.456;2022-10-31T09:57:27;101817.56;;;13.38;100.00
58622;BME280;44389;51.578;5.456;2022-10-31T09:59:54;101801.44;;;13.45;100.00
58622;BME280;44389;51.578;5.456;2022-10-31T10:02:30;101805.72;;;13.45;100.00
58622;BME280;44389;51.578;5.456;2022-10-31T10:05:05;101790.09;;;13.42;100.00
58622;BME280;44389;51.578;5.456;2022-10-31T10:07:44;101811.59;;;13.39;100.00
58622;BME280;44389;51.578;5.456;2022-10-31T10:10:24;101796.53;;;13.55;100.00
58622;BME280;44389;51.578;5.456;2022-10-31T10:13:13;101786.28;;;13.58;100.00
58622;BME280;44389;51.578;5.456;2022-10-31T10:21:45;101762.38;;;14.55;100.00
58622;BME280;44389;51.578;5.456;2022-10-31T10:24:30;101756.97;;;14.47;100.00
58622;BME280;44389;51.578;5.456;2022-10-31T10:29:47;101754.34;;;14.45;100.00
58622;BME280;44389;51.578;5.456;2022-10-31T10:32:46;101749.22;;;14.48;100.00
58622;BME280;44389;51.578;5.456;2022-10-31T10:35:17;101737.44;;;14.60;100.00
58622;BME280;44389;51.578;5.456;2022-10-31T10:37:46;101730.34;;;14.53;100.00
58622;BME280;44389;51.578;5.456;2022-10-31T10:40:20;101737.84;;;14.74;100.00
58622;BME280;44389;51.578;5.456;2022-10-31T10:48:43;101747.84;;;14.92;100.00
58622;BME280;44389;51.578;5.456;2022-10-31T10:54:32;101764.25;;;14.91;100.00
58622;BME280;44389;51.578;5.456;2022-10-31T10:57:22;101745.41;;;14.98;100.00
58622;BME280;44389;51.578;5.456;2022-10-31T10:59:51;101738.72;;;15.08;100.00
58622;BME280;44389;51.578;5.456;2022-10-31T11:04:42;101724.38;;;15.22;100.00
58622;BME280;44389;51.578;5.456;2022-10-31T11:07:11;101718.44;;;15.28;100.00
58622;BME280;44389;51.578;5.456;2022-10-31T11:09:37;101712.78;;;15.44;100.00
58622;BME280;44389;51.578;5.456;2022-10-31T11:12:14;101725.47;;;15.69;100.00
58622;BME280;44389;51.578;5.456;2022-10-31T11:14:51;101729.88;;;15.71;100.00
58622;BME280;44389;51.578;5.456;2022-10-31T11:20:04;101718.59;;;15.72;100.00
58622;BME280;44389;51.578;5.456;2022-10-31T11:22:30;101712.69;;;15.79;100.00
58622;BME280;44389;51.578;5.456;2022-10-31T11:24:56;101712.53;;;15.72;100.00
58622;BME280;44389;51.578;5.456;2022-10-31T11:27:23;101700.50;;;15.77;100.00
58622;BME280;44389;51.578;5.456;2022-10-31T11:29:49;101692.72;;;15.77;100.00
58622;BME280;44389;51.578;5.456;2022-10-31T11:32:23;101672.78;;;15.77;100.00
58622;BME280;44389;51.578;5.456;2022-10-31T11:34:52;101664.16;;;15.78;100.00
58622;BME280;44389;51.578;5.456;2022-10-31T11:37:24;101664.03;;;15.72;100.00
58622;BME280;44389;51.578;5.456;2022-10-31T11:39:55;101659.25;;;15.91;100.00
58622;BME280;44389;51.578;5.456;2022-10-31T11:42:25;101652.31;;;15.91;100.00
58622;BME280;44389;51.578;5.456;2022-10-31T11:44:52;101656.00;;;16.01;100.00
58622;BME280;44389;51.578;5.456;2022-10-31T11:47:25;101650.09;;;16.10;100.00
58622;BME280;44389;51.578;5.456;2022-10-31T11:49:51;101639.63;;;16.53;100.00
58622;BME280;44389;51.578;5.456;2022-10-31T11:52:23;101628.47;;;16.61;100.00
58622;BME280;44389;51.578;5.456;2022-10-31T11:54:50;101620.56;;;17.06;98.58
58622;BME280;44389;51.578;5.456;2022-10-31T11:57:45;101618.88;;;17.09;98.92
58622;BME280;44389;51.578;5.456;2022-10-31T12:00:28;101616.91;;;16.94;99.23
58622;BME280;44389;51.578;5.456;2022-10-31T12:03:14;101609.09;;;16.93;97.53
58622;BME280;44389;51.578;5.456;2022-10-31T12:05:44;101607.25;;;16.89;94.72
58622;BME280;44389;51.578;5.456;2022-10-31T12:08:12;101599.44;;;16.89;94.34
58622;BME280;44389;51.578;5.456;2022-10-31T12:10:55;101588.22;;;16.91;95.65
58622;BME280;44389;51.578;5.456;2022-10-31T12:16:00;101572.72;;;16.99;95.12
58622;BME280;44389;51.578;5.456;2022-10-31T12:21:24;101561.16;;;16.83;94.11
58622;BME280;44389;51.578;5.456;2022-10-31T12:24:07;101560.16;;;16.73;94.27
58622;BME280;44389;51.578;5.456;2022-10-31T12:29:45;101543.75;;;16.81;95.16
58622;BME280;44389;51.578;5.456;2022-10-31T12:32:38;101532.59;;;16.88;95.59
58622;BME280;44389;51.578;5.456;2022-10-31T12:35:34;101524.97;;;16.99;95.18
58622;BME280;44389;51.578;5.456;2022-10-31T12:43:49;101519.03;;;17.10;90.82
58622;BME280;44389;51.578;5.456;2022-10-31T12:46:34;101510.38;;;17.11;92.33
58622;BME280;44389;51.578;5.456;2022-10-31T12:51:51;101494.09;;;17.26;90.46
58622;BME280;44389;51.578;5.456;2022-10-31T12:54:43;101478.78;;;17.56;90.58
58622;BME280;44389;51.578;5.456;2022-10-31T12:57:27;101475.72;;;17.96;88.37
58622;BME280;44389;51.578;5.456;2022-10-31T13:00:01;101467.34;;;18.35;85.19
58622;BME280;44389;51.578;5.456;2022-10-31T13:02:39;101453.59;;;18.61;85.23
58622;BME280;44389;51.578;5.456;2022-10-31T13:08:08;101443.25;;;18.80;83.78
58622;BME280;44389;51.578;5.456;2022-10-31T13:10:43;101437.22;;;18.90;81.86
58622;BME280;44389;51.578;5.456;2022-10-31T13:13:15;101424.84;;;18.52;80.05
58622;BME280;44389;51.578;5.456;2022-10-31T13:15:50;101426.41;;;18.28;82.47
58622;BME280;44389;51.578;5.456;2022-10-31T13:18:27;101419.34;;;18.12;83.78
58622;BME280;44389;51.578;5.456;2022-10-31T13:20:55;101415.84;;;18.09;84.29
58622;BME280;44389;51.578;5.456;2022-10-31T13:23:28;101405.25;;;17.92;83.62
58622;BME280;44389;51.578;5.456;2022-10-31T13:25:55;101401.69;;;17.84;84.04
58622;BME280;44389;51.578;5.456;2022-10-31T13:30:58;101387.66;;;17.65;84.58
58622;BME280;44389;51.578;5.456;2022-10-31T13:36:19;101388.53;;;17.69;84.63
58622;BME280;44389;51.578;5.456;2022-10-31T13:41:48;101372.31;;;18.02;81.63
58622;BME280;44389;51.578;5.456;2022-10-31T13:44:22;101367.28;;;18.27;79.96
58622;BME280;44389;51.578;5.456;2022-10-31T13:46:53;101363.75;;;18.20;78.54
58622;BME280;44389;51.578;5.456;2022-10-31T13:54:43;101343.72;;;18.18;78.45
58622;BME280;44389;51.578;5.456;2022-10-31T13:57:21;101338.44;;;18.08;79.89
58622;BME280;44389;51.578;5.456;2022-10-31T13:59:56;101345.25;;;17.89;80.14
58622;BME280;44389;51.578;5.456;2022-10-31T14:02:31;101343.22;;;17.54;81.34
58622;BME280;44389;51.578;5.456;2022-10-31T14:07:48;101334.13;;;17.10;82.51
58622;BME280;44389;51.578;5.456;2022-10-31T14:10:25;101338.28;;;16.93;82.48
58622;BME280;44389;51.578;5.456;2022-10-31T14:12:50;101342.75;;;17.05;82.83
58622;BME280;44389;51.578;5.456;2022-10-31T14:15:26;101335.28;;;16.60;84.79
58622;BME280;44389;51.578;5.456;2022-10-31T14:17:55;101333.34;;;16.45;84.13
58622;BME280;44389;51.578;5.456;2022-10-31T14:20:30;101328.03;;;16.36;85.69
58622;BME280;44389;51.578;5.456;2022-10-31T14:22:56;101329.63;;;16.28;86.88
58622;BME280;44389;51.578;5.456;2022-10-31T14:25:30;101321.72;;;16.19;87.11
58622;BME280;44389;51.578;5.456;2022-10-31T14:27:56;101309.53;;;16.15;87.11
58622;BME280;44389;51.578;5.456;2022-10-31T14:30:24;101314.75;;;16.18;87.61
58622;BME280;44389;51.578;5.456;2022-10-31T14:32:52;101313.09;;;16.23;88.70